Terminal Aerodrome Forecast
Issued by NWS Buffalo, NY

Home | Current Version | Previous Version | Text Only | Print | Product List | Glossary On
Versions: 1 2 3 4 5 6 7 8 9 10 11 12 13 14 15 16 17 18 19 20 21 22
000
FTUS41 KBUF 302323
TAFBUF
TAF
KBUF 302323Z 0100/0124 09011KT P6SM BKN050 OVC220
     FM010300 09010KT P6SM BKN045
     FM010500 11008KT 6SM -RA OVC045
     FM010800 10010G16KT 6SM -RA OVC025
     FM011500 14010G16KT 6SM -RA OVC012
     FM011700 19006KT 6SM -SHRA OVC012
     FM012000 22010G16KT 6SM -SHRA OVC012
     FM012300 30007KT P6SM VCSH BKN012=

USA.gov is the U.S. government's official web portal to all federal, state and local government web resources and services.